sensor_id;sensor_type;location;lat;lon;timestamp;P1;durP1;ratioP1;P2;durP2;ratioP2
44728;SDS011;30457;53.590;9.922;2023-11-21T00:00:56;11.93;;;6.50;;
44728;SDS011;30457;53.590;9.922;2023-11-21T00:05:21;9.60;;;6.00;;
44728;SDS011;30457;53.590;9.922;2023-11-21T00:09:48;8.90;;;4.75;;
44728;SDS011;30457;53.590;9.922;2023-11-21T00:14:13;9.68;;;5.28;;
44728;SDS011;30457;53.590;9.922;2023-11-21T00:18:40;9.88;;;5.75;;
44728;SDS011;30457;53.590;9.922;2023-11-21T00:23:05;11.75;;;6.38;;
44728;SDS011;30457;53.590;9.922;2023-11-21T00:27:31;8.85;;;6.22;;
44728;SDS011;30457;53.590;9.922;2023-11-21T00:31:57;14.35;;;6.82;;
44728;SDS011;30457;53.590;9.922;2023-11-21T00:36:23;12.45;;;8.15;;
44728;SDS011;30457;53.590;9.922;2023-11-21T00:40:48;13.50;;;7.95;;
44728;SDS011;30457;53.590;9.922;2023-11-21T00:45:14;20.15;;;8.20;;
44728;SDS011;30457;53.590;9.922;2023-11-21T00:49:39;13.65;;;6.57;;
44728;SDS011;30457;53.590;9.922;2023-11-21T00:54:05;13.27;;;6.28;;
44728;SDS011;30457;53.590;9.922;2023-11-21T00:58:31;8.98;;;5.93;;
44728;SDS011;30457;53.590;9.922;2023-11-21T01:02:57;9.88;;;5.53;;
44728;SDS011;30457;53.590;9.922;2023-11-21T01:07:23;9.63;;;6.20;;
44728;SDS011;30457;53.590;9.922;2023-11-21T01:11:49;11.68;;;7.20;;
44728;SDS011;30457;53.590;9.922;2023-11-21T01:16:17;11.57;;;6.65;;
44728;SDS011;30457;53.590;9.922;2023-11-21T01:20:42;10.55;;;5.95;;
44728;SDS011;30457;53.590;9.922;2023-11-21T01:25:09;12.95;;;6.53;;
44728;SDS011;30457;53.590;9.922;2023-11-21T01:29:35;12.23;;;6.50;;
44728;SDS011;30457;53.590;9.922;2023-11-21T01:34:01;12.32;;;7.15;;
44728;SDS011;30457;53.590;9.922;2023-11-21T01:38:27;11.40;;;6.60;;
44728;SDS011;30457;53.590;9.922;2023-11-21T01:42:53;9.57;;;5.97;;
44728;SDS011;30457;53.590;9.922;2023-11-21T01:47:18;11.75;;;6.82;;
44728;SDS011;30457;53.590;9.922;2023-11-21T01:51:45;11.80;;;6.20;;
44728;SDS011;30457;53.590;9.922;2023-11-21T01:56:12;9.95;;;6.05;;
44728;SDS011;30457;53.590;9.922;2023-11-21T02:00:39;8.95;;;5.28;;
44728;SDS011;30457;53.590;9.922;2023-11-21T02:05:04;7.78;;;5.28;;
44728;SDS011;30457;53.590;9.922;2023-11-21T02:09:30;9.82;;;4.78;;
44728;SDS011;30457;53.590;9.922;2023-11-21T02:13:58;8.05;;;5.10;;
44728;SDS011;30457;53.590;9.922;2023-11-21T02:18:25;8.80;;;4.95;;
44728;SDS011;30457;53.590;9.922;2023-11-21T02:22:56;8.55;;;4.50;;
44728;SDS011;30457;53.590;9.922;2023-11-21T02:27:25;6.90;;;4.60;;
44728;SDS011;30457;53.590;9.922;2023-11-21T02:31:52;9.23;;;4.40;;
44728;SDS011;30457;53.590;9.922;2023-11-21T02:36:20;6.57;;;4.10;;
44728;SDS011;30457;53.590;9.922;2023-11-21T02:40:46;5.95;;;4.43;;
44728;SDS011;30457;53.590;9.922;2023-11-21T02:45:15;5.30;;;3.70;;
44728;SDS011;30457;53.590;9.922;2023-11-21T02:49:41;5.55;;;3.53;;
44728;SDS011;30457;53.590;9.922;2023-11-21T02:54:09;5.47;;;3.90;;
44728;SDS011;30457;53.590;9.922;2023-11-21T02:58:34;6.10;;;4.07;;
44728;SDS011;30457;53.590;9.922;2023-11-21T03:03:00;7.30;;;3.70;;
44728;SDS011;30457;53.590;9.922;2023-11-21T03:07:25;5.47;;;3.50;;
44728;SDS011;30457;53.590;9.922;2023-11-21T03:11:51;5.88;;;3.40;;
44728;SDS011;30457;53.590;9.922;2023-11-21T03:16:18;9.10;;;3.95;;
44728;SDS011;30457;53.590;9.922;2023-11-21T03:20:45;4.32;;;3.28;;
44728;SDS011;30457;53.590;9.922;2023-11-21T03:25:14;5.60;;;3.65;;
44728;SDS011;30457;53.590;9.922;2023-11-21T03:29:42;6.13;;;4.05;;
44728;SDS011;30457;53.590;9.922;2023-11-21T03:34:15;5.65;;;4.05;;
44728;SDS011;30457;53.590;9.922;2023-11-21T03:38:49;7.10;;;4.47;;
44728;SDS011;30457;53.590;9.922;2023-11-21T03:43:15;11.27;;;4.35;;
44728;SDS011;30457;53.590;9.922;2023-11-21T03:47:43;7.75;;;3.78;;
44728;SDS011;30457;53.590;9.922;2023-11-21T03:52:09;6.40;;;4.35;;
44728;SDS011;30457;53.590;9.922;2023-11-21T03:56:35;6.80;;;4.50;;
44728;SDS011;30457;53.590;9.922;2023-11-21T04:01:00;7.15;;;4.95;;
44728;SDS011;30457;53.590;9.922;2023-11-21T04:05:26;6.75;;;4.57;;
44728;SDS011;30457;53.590;9.922;2023-11-21T04:09:52;5.68;;;3.95;;
44728;SDS011;30457;53.590;9.922;2023-11-21T04:14:18;7.57;;;4.45;;
44728;SDS011;30457;53.590;9.922;2023-11-21T04:18:44;6.00;;;4.25;;
44728;SDS011;30457;53.590;9.922;2023-11-21T04:23:10;7.65;;;4.22;;
44728;SDS011;30457;53.590;9.922;2023-11-21T04:27:39;9.50;;;4.97;;
44728;SDS011;30457;53.590;9.922;2023-11-21T04:32:05;9.63;;;4.50;;
44728;SDS011;30457;53.590;9.922;2023-11-21T04:36:31;7.18;;;4.10;;
44728;SDS011;30457;53.590;9.922;2023-11-21T04:40:57;6.05;;;4.32;;
44728;SDS011;30457;53.590;9.922;2023-11-21T04:45:22;9.40;;;4.50;;
44728;SDS011;30457;53.590;9.922;2023-11-21T04:49:48;7.72;;;4.90;;
44728;SDS011;30457;53.590;9.922;2023-11-21T04:54:13;7.07;;;4.65;;
44728;SDS011;30457;53.590;9.922;2023-11-21T04:58:39;8.88;;;5.20;;
44728;SDS011;30457;53.590;9.922;2023-11-21T05:03:06;6.55;;;4.60;;
44728;SDS011;30457;53.590;9.922;2023-11-21T05:07:32;9.70;;;5.22;;
44728;SDS011;30457;53.590;9.922;2023-11-21T05:11:58;6.43;;;4.43;;
44728;SDS011;30457;53.590;9.922;2023-11-21T05:16:25;7.53;;;4.68;;
44728;SDS011;30457;53.590;9.922;2023-11-21T05:20:52;8.18;;;4.88;;
44728;SDS011;30457;53.590;9.922;2023-11-21T05:25:18;4.85;;;4.03;;
44728;SDS011;30457;53.590;9.922;2023-11-21T05:29:44;6.95;;;4.45;;
44728;SDS011;30457;53.590;9.922;2023-11-21T05:34:09;7.68;;;4.47;;
44728;SDS011;30457;53.590;9.922;2023-11-21T05:38:35;8.20;;;5.18;;
44728;SDS011;30457;53.590;9.922;2023-11-21T05:43:01;8.45;;;5.20;;
44728;SDS011;30457;53.590;9.922;2023-11-21T05:47:27;9.45;;;4.85;;
44728;SDS011;30457;53.590;9.922;2023-11-21T05:51:53;6.57;;;4.75;;
44728;SDS011;30457;53.590;9.922;2023-11-21T05:56:19;8.00;;;5.00;;
44728;SDS011;30457;53.590;9.922;2023-11-21T06:00:45;9.90;;;5.50;;
44728;SDS011;30457;53.590;9.922;2023-11-21T06:05:10;6.65;;;5.25;;
44728;SDS011;30457;53.590;9.922;2023-11-21T06:09:36;6.57;;;4.65;;
44728;SDS011;30457;53.590;9.922;2023-11-21T06:14:02;6.10;;;4.70;;
44728;SDS011;30457;53.590;9.922;2023-11-21T06:18:28;8.20;;;5.72;;
44728;SDS011;30457;53.590;9.922;2023-11-21T06:22:54;7.40;;;4.78;;
44728;SDS011;30457;53.590;9.922;2023-11-21T06:27:19;7.13;;;4.78;;
44728;SDS011;30457;53.590;9.922;2023-11-21T06:31:45;7.82;;;4.78;;
44728;SDS011;30457;53.590;9.922;2023-11-21T06:36:11;10.38;;;5.30;;
44728;SDS011;30457;53.590;9.922;2023-11-21T06:40:36;9.20;;;5.40;;
44728;SDS011;30457;53.590;9.922;2023-11-21T06:45:02;8.90;;;5.43;;
44728;SDS011;30457;53.590;9.922;2023-11-21T06:49:29;7.43;;;5.45;;
44728;SDS011;30457;53.590;9.922;2023-11-21T06:53:55;8.10;;;4.97;;
44728;SDS011;30457;53.590;9.922;2023-11-21T06:58:21;8.15;;;5.07;;
44728;SDS011;30457;53.590;9.922;2023-11-21T07:02:46;7.80;;;5.45;;
44728;SDS011;30457;53.590;9.922;2023-11-21T07:07:12;10.13;;;5.03;;
44728;SDS011;30457;53.590;9.922;2023-11-21T07:11:37;7.68;;;5.10;;
44728;SDS011;30457;53.590;9.922;2023-11-21T07:16:03;8.43;;;4.18;;
44728;SDS011;30457;53.590;9.922;2023-11-21T07:20:29;9.63;;;4.97;;
44728;SDS011;30457;53.590;9.922;2023-11-21T07:24:55;8.85;;;4.78;;
44728;SDS011;30457;53.590;9.922;2023-11-21T07:29:24;8.15;;;4.30;;
44728;SDS011;30457;53.590;9.922;2023-11-21T07:33:54;7.13;;;4.45;;
44728;SDS011;30457;53.590;9.922;2023-11-21T07:38:23;6.85;;;5.05;;
44728;SDS011;30457;53.590;9.922;2023-11-21T07:42:49;8.93;;;5.00;;
44728;SDS011;30457;53.590;9.922;2023-11-21T07:47:15;5.78;;;4.20;;
44728;SDS011;30457;53.590;9.922;2023-11-21T07:51:41;7.50;;;4.57;;
44728;SDS011;30457;53.590;9.922;2023-11-21T07:56:08;8.45;;;4.45;;
44728;SDS011;30457;53.590;9.922;2023-11-21T08:00:34;9.35;;;5.15;;
44728;SDS011;30457;53.590;9.922;2023-11-21T08:05:00;11.27;;;4.47;;
44728;SDS011;30457;53.590;9.922;2023-11-21T08:09:25;4.50;;;3.97;;
44728;SDS011;30457;53.590;9.922;2023-11-21T08:13:51;8.23;;;4.05;;
44728;SDS011;30457;53.590;9.922;2023-11-21T08:18:16;5.35;;;4.13;;
44728;SDS011;30457;53.590;9.922;2023-11-21T08:22:43;5.05;;;4.07;;
44728;SDS011;30457;53.590;9.922;2023-11-21T08:27:09;6.63;;;3.78;;
44728;SDS011;30457;53.590;9.922;2023-11-21T08:31:35;5.15;;;3.83;;
44728;SDS011;30457;53.590;9.922;2023-11-21T08:36:01;5.85;;;3.97;;
44728;SDS011;30457;53.590;9.922;2023-11-21T08:40:36;5.03;;;3.47;;
44728;SDS011;30457;53.590;9.922;2023-11-21T08:45:01;4.47;;;3.42;;
44728;SDS011;30457;53.590;9.922;2023-11-21T08:49:27;5.20;;;3.40;;
44728;SDS011;30457;53.590;9.922;2023-11-21T08:53:54;8.07;;;3.45;;
44728;SDS011;30457;53.590;9.922;2023-11-21T08:58:24;6.82;;;4.05;;
44728;SDS011;30457;53.590;9.922;2023-11-21T09:02:49;6.00;;;3.95;;
44728;SDS011;30457;53.590;9.922;2023-11-21T09:07:15;5.53;;;3.63;;
44728;SDS011;30457;53.590;9.922;2023-11-21T09:11:40;4.30;;;3.33;;
44728;SDS011;30457;53.590;9.922;2023-11-21T09:16:06;7.07;;;3.67;;
44728;SDS011;30457;53.590;9.922;2023-11-21T09:20:32;6.88;;;4.05;;
44728;SDS011;30457;53.590;9.922;2023-11-21T09:24:57;4.70;;;3.42;;
44728;SDS011;30457;53.590;9.922;2023-11-21T09:29:23;4.20;;;2.88;;
44728;SDS011;30457;53.590;9.922;2023-11-21T09:33:48;5.07;;;2.83;;
44728;SDS011;30457;53.590;9.922;2023-11-21T09:38:14;2.30;;;2.10;;
44728;SDS011;30457;53.590;9.922;2023-11-21T09:42:40;2.63;;;2.10;;
44728;SDS011;30457;53.590;9.922;2023-11-21T09:47:14;3.25;;;2.00;;
44728;SDS011;30457;53.590;9.922;2023-11-21T09:51:42;3.10;;;1.95;;
44728;SDS011;30457;53.590;9.922;2023-11-21T09:56:08;3.45;;;2.22;;
44728;SDS011;30457;53.590;9.922;2023-11-21T10:00:34;3.38;;;2.63;;
44728;SDS011;30457;53.590;9.922;2023-11-21T10:04:59;3.63;;;2.03;;
44728;SDS011;30457;53.590;9.922;2023-11-21T10:09:25;2.90;;;2.00;;
44728;SDS011;30457;53.590;9.922;2023-11-21T10:13:55;2.30;;;2.10;;
44728;SDS011;30457;53.590;9.922;2023-11-21T10:18:23;2.45;;;2.03;;
44728;SDS011;30457;53.590;9.922;2023-11-21T10:22:51;3.10;;;2.13;;
44728;SDS011;30457;53.590;9.922;2023-11-21T10:27:17;2.17;;;1.85;;
44728;SDS011;30457;53.590;9.922;2023-11-21T10:31:42;4.30;;;2.10;;
44728;SDS011;30457;53.590;9.922;2023-11-21T10:36:10;3.10;;;2.10;;
44728;SDS011;30457;53.590;9.922;2023-11-21T10:40:40;2.22;;;1.95;;
44728;SDS011;30457;53.590;9.922;2023-11-21T10:45:07;2.53;;;1.60;;
44728;SDS011;30457;53.590;9.922;2023-11-21T10:49:39;1.73;;;1.63;;
44728;SDS011;30457;53.590;9.922;2023-11-21T10:54:05;2.65;;;1.80;;
44728;SDS011;30457;53.590;9.922;2023-11-21T10:58:31;3.03;;;2.10;;
44728;SDS011;30457;53.590;9.922;2023-11-21T11:02:57;3.70;;;2.25;;
44728;SDS011;30457;53.590;9.922;2023-11-21T11:07:27;3.38;;;2.35;;
44728;SDS011;30457;53.590;9.922;2023-11-21T11:11:53;2.67;;;2.03;;
44728;SDS011;30457;53.590;9.922;2023-11-21T11:16:19;2.20;;;2.00;;
44728;SDS011;30457;53.590;9.922;2023-11-21T11:20:45;3.90;;;2.13;;
44728;SDS011;30457;53.590;9.922;2023-11-21T11:29:43;2.50;;;1.90;;
44728;SDS011;30457;53.590;9.922;2023-11-21T11:43:52;2.83;;;1.80;;
44728;SDS011;30457;53.590;9.922;2023-11-21T11:48:18;2.15;;;1.80;;
44728;SDS011;30457;53.590;9.922;2023-11-21T11:52:47;2.55;;;1.80;;
44728;SDS011;30457;53.590;9.922;2023-11-21T11:57:17;2.10;;;1.80;;
44728;SDS011;30457;53.590;9.922;2023-11-21T12:01:44;4.15;;;1.70;;
44728;SDS011;30457;53.590;9.922;2023-11-21T12:06:11;3.83;;;1.90;;
44728;SDS011;30457;53.590;9.922;2023-11-21T12:10:37;3.47;;;1.77;;
44728;SDS011;30457;53.590;9.922;2023-11-21T12:15:04;4.03;;;2.35;;
44728;SDS011;30457;53.590;9.922;2023-11-21T12:19:30;4.82;;;2.13;;
44728;SDS011;30457;53.590;9.922;2023-11-21T12:23:56;2.58;;;2.22;;
44728;SDS011;30457;53.590;9.922;2023-11-21T12:28:21;2.25;;;1.67;;
44728;SDS011;30457;53.590;9.922;2023-11-21T12:32:49;4.55;;;2.42;;
44728;SDS011;30457;53.590;9.922;2023-11-21T12:37:18;3.58;;;2.10;;
44728;SDS011;30457;53.590;9.922;2023-11-21T12:41:44;3.90;;;2.10;;
44728;SDS011;30457;53.590;9.922;2023-11-21T12:46:10;3.38;;;2.10;;
44728;SDS011;30457;53.590;9.922;2023-11-21T12:50:39;3.13;;;2.25;;
44728;SDS011;30457;53.590;9.922;2023-11-21T12:55:05;4.03;;;2.95;;
44728;SDS011;30457;53.590;9.922;2023-11-21T12:59:32;2.28;;;1.90;;
44728;SDS011;30457;53.590;9.922;2023-11-21T13:04:07;2.95;;;2.00;;
44728;SDS011;30457;53.590;9.922;2023-11-21T13:08:35;3.08;;;2.03;;
44728;SDS011;30457;53.590;9.922;2023-11-21T13:13:04;2.47;;;1.77;;
44728;SDS011;30457;53.590;9.922;2023-11-21T13:17:33;2.13;;;1.60;;
44728;SDS011;30457;53.590;9.922;2023-11-21T13:22:03;2.10;;;1.90;;
44728;SDS011;30457;53.590;9.922;2023-11-21T13:26:29;3.08;;;2.20;;
44728;SDS011;30457;53.590;9.922;2023-11-21T13:30:55;3.17;;;2.25;;
44728;SDS011;30457;53.590;9.922;2023-11-21T13:35:21;2.72;;;1.45;;
44728;SDS011;30457;53.590;9.922;2023-11-21T13:39:55;2.90;;;2.50;;
44728;SDS011;30457;53.590;9.922;2023-11-21T13:44:21;2.25;;;1.65;;
44728;SDS011;30457;53.590;9.922;2023-11-21T13:48:59;5.57;;;2.65;;
44728;SDS011;30457;53.590;9.922;2023-11-21T13:53:25;2.55;;;2.30;;
44728;SDS011;30457;53.590;9.922;2023-11-21T13:57:51;3.80;;;2.53;;
44728;SDS011;30457;53.590;9.922;2023-11-21T14:02:17;2.17;;;1.80;;
44728;SDS011;30457;53.590;9.922;2023-11-21T14:06:48;2.47;;;1.92;;
44728;SDS011;30457;53.590;9.922;2023-11-21T14:11:16;2.92;;;2.60;;
44728;SDS011;30457;53.590;9.922;2023-11-21T14:15:43;2.45;;;2.25;;
44728;SDS011;30457;53.590;9.922;2023-11-21T14:20:19;3.35;;;2.20;;
44728;SDS011;30457;53.590;9.922;2023-11-21T14:24:46;2.22;;;1.77;;
44728;SDS011;30457;53.590;9.922;2023-11-21T14:29:12;6.20;;;2.15;;
44728;SDS011;30457;53.590;9.922;2023-11-21T14:33:41;5.82;;;3.38;;
44728;SDS011;30457;53.590;9.922;2023-11-21T14:38:06;3.50;;;2.10;;
44728;SDS011;30457;53.590;9.922;2023-11-21T14:42:32;4.70;;;3.05;;
44728;SDS011;30457;53.590;9.922;2023-11-21T14:46:58;7.65;;;4.18;;
44728;SDS011;30457;53.590;9.922;2023-11-21T14:51:25;5.32;;;3.03;;
44728;SDS011;30457;53.590;9.922;2023-11-21T14:55:55;10.48;;;4.43;;
44728;SDS011;30457;53.590;9.922;2023-11-21T15:00:24;2.75;;;1.95;;
44728;SDS011;30457;53.590;9.922;2023-11-21T15:04:59;3.45;;;1.83;;
44728;SDS011;30457;53.590;9.922;2023-11-21T15:09:27;4.55;;;1.77;;
44728;SDS011;30457;53.590;9.922;2023-11-21T15:13:58;2.92;;;2.10;;
44728;SDS011;30457;53.590;9.922;2023-11-21T15:18:31;2.53;;;1.88;;
44728;SDS011;30457;53.590;9.922;2023-11-21T15:22:58;2.33;;;1.80;;
44728;SDS011;30457;53.590;9.922;2023-11-21T15:27:25;4.13;;;1.73;;
44728;SDS011;30457;53.590;9.922;2023-11-21T15:31:52;3.70;;;2.50;;
44728;SDS011;30457;53.590;9.922;2023-11-21T15:36:21;2.17;;;1.67;;
44728;SDS011;30457;53.590;9.922;2023-11-21T15:40:47;3.08;;;1.60;;
44728;SDS011;30457;53.590;9.922;2023-11-21T15:45:14;5.68;;;2.75;;
44728;SDS011;30457;53.590;9.922;2023-11-21T15:49:43;1.60;;;1.50;;
44728;SDS011;30457;53.590;9.922;2023-11-21T15:54:11;1.63;;;1.45;;
44728;SDS011;30457;53.590;9.922;2023-11-21T15:58:38;4.13;;;2.28;;
44728;SDS011;30457;53.590;9.922;2023-11-21T16:03:09;3.47;;;1.88;;
44728;SDS011;30457;53.590;9.922;2023-11-21T16:07:39;4.20;;;2.75;;
44728;SDS011;30457;53.590;9.922;2023-11-21T16:12:13;9.75;;;4.97;;
44728;SDS011;30457;53.590;9.922;2023-11-21T16:16:39;5.22;;;2.72;;
44728;SDS011;30457;53.590;9.922;2023-11-21T16:21:05;12.52;;;5.30;;
44728;SDS011;30457;53.590;9.922;2023-11-21T16:25:38;6.03;;;3.47;;
44728;SDS011;30457;53.590;9.922;2023-11-21T16:30:07;5.30;;;2.83;;
44728;SDS011;30457;53.590;9.922;2023-11-21T16:34:38;9.38;;;4.88;;
44728;SDS011;30457;53.590;9.922;2023-11-21T16:39:06;5.53;;;3.28;;
44728;SDS011;30457;53.590;9.922;2023-11-21T16:43:37;11.55;;;7.05;;
44728;SDS011;30457;53.590;9.922;2023-11-21T16:48:07;5.63;;;4.03;;
44728;SDS011;30457;53.590;9.922;2023-11-21T16:52:38;5.18;;;3.20;;
44728;SDS011;30457;53.590;9.922;2023-11-21T16:57:06;6.40;;;5.18;;
44728;SDS011;30457;53.590;9.922;2023-11-21T17:01:37;9.75;;;7.72;;
44728;SDS011;30457;53.590;9.922;2023-11-21T17:06:03;4.63;;;3.35;;
44728;SDS011;30457;53.590;9.922;2023-11-21T17:10:30;8.15;;;4.35;;
44728;SDS011;30457;53.590;9.922;2023-11-21T17:14:56;8.60;;;4.68;;
44728;SDS011;30457;53.590;9.922;2023-11-21T17:19:36;5.00;;;3.75;;
44728;SDS011;30457;53.590;9.922;2023-11-21T17:24:02;8.32;;;4.88;;
44728;SDS011;30457;53.590;9.922;2023-11-21T17:28:29;4.40;;;3.20;;
44728;SDS011;30457;53.590;9.922;2023-11-21T17:32:55;3.53;;;2.45;;
44728;SDS011;30457;53.590;9.922;2023-11-21T17:37:20;5.68;;;2.75;;
44728;SDS011;30457;53.590;9.922;2023-11-21T17:41:46;3.50;;;2.58;;
44728;SDS011;30457;53.590;9.922;2023-11-21T17:46:12;2.08;;;1.88;;
44728;SDS011;30457;53.590;9.922;2023-11-21T17:50:42;6.18;;;3.33;;
44728;SDS011;30457;53.590;9.922;2023-11-21T17:55:08;6.95;;;3.80;;
44728;SDS011;30457;53.590;9.922;2023-11-21T17:59:34;8.02;;;4.00;;
44728;SDS011;30457;53.590;9.922;2023-11-21T18:04:01;6.18;;;3.95;;
44728;SDS011;30457;53.590;9.922;2023-11-21T18:08:27;5.60;;;3.55;;
44728;SDS011;30457;53.590;9.922;2023-11-21T18:12:53;2.95;;;2.40;;
44728;SDS011;30457;53.590;9.922;2023-11-21T18:17:19;4.47;;;2.78;;
44728;SDS011;30457;53.590;9.922;2023-11-21T18:21:44;3.55;;;2.15;;
44728;SDS011;30457;53.590;9.922;2023-11-21T18:26:15;3.78;;;2.97;;
44728;SDS011;30457;53.590;9.922;2023-11-21T18:30:41;3.55;;;2.33;;
44728;SDS011;30457;53.590;9.922;2023-11-21T18:35:07;3.30;;;2.30;;
44728;SDS011;30457;53.590;9.922;2023-11-21T18:39:33;6.05;;;4.10;;
44728;SDS011;30457;53.590;9.922;2023-11-21T18:43:59;4.40;;;3.05;;
44728;SDS011;30457;53.590;9.922;2023-11-21T18:48:25;3.08;;;2.22;;
44728;SDS011;30457;53.590;9.922;2023-11-21T18:52:50;2.88;;;2.38;;
44728;SDS011;30457;53.590;9.922;2023-11-21T18:57:16;3.17;;;2.15;;
44728;SDS011;30457;53.590;9.922;2023-11-21T19:01:41;7.00;;;4.03;;
44728;SDS011;30457;53.590;9.922;2023-11-21T19:06:08;3.78;;;2.88;;
44728;SDS011;30457;53.590;9.922;2023-11-21T19:10:34;4.55;;;2.50;;
44728;SDS011;30457;53.590;9.922;2023-11-21T19:15:02;6.25;;;3.42;;
44728;SDS011;30457;53.590;9.922;2023-11-21T19:19:28;3.92;;;2.80;;
44728;SDS011;30457;53.590;9.922;2023-11-21T19:23:54;5.95;;;3.17;;
44728;SDS011;30457;53.590;9.922;2023-11-21T19:28:19;7.82;;;3.70;;
44728;SDS011;30457;53.590;9.922;2023-11-21T19:32:45;4.35;;;2.58;;
44728;SDS011;30457;53.590;9.922;2023-11-21T19:37:10;3.75;;;2.70;;
44728;SDS011;30457;53.590;9.922;2023-11-21T19:41:36;3.10;;;2.30;;
44728;SDS011;30457;53.590;9.922;2023-11-21T19:46:02;4.38;;;3.13;;
44728;SDS011;30457;53.590;9.922;2023-11-21T19:50:28;5.68;;;2.60;;
44728;SDS011;30457;53.590;9.922;2023-11-21T19:54:56;4.28;;;2.78;;
44728;SDS011;30457;53.590;9.922;2023-11-21T19:59:22;2.80;;;2.20;;
44728;SDS011;30457;53.590;9.922;2023-11-21T20:03:48;4.18;;;2.53;;
44728;SDS011;30457;53.590;9.922;2023-11-21T20:08:16;3.50;;;2.30;;
44728;SDS011;30457;53.590;9.922;2023-11-21T20:12:42;3.05;;;2.22;;
44728;SDS011;30457;53.590;9.922;2023-11-21T20:17:10;2.58;;;1.95;;
44728;SDS011;30457;53.590;9.922;2023-11-21T20:21:36;3.20;;;2.08;;
44728;SDS011;30457;53.590;9.922;2023-11-21T20:26:02;2.65;;;1.98;;
44728;SDS011;30457;53.590;9.922;2023-11-21T20:30:28;2.72;;;1.70;;
44728;SDS011;30457;53.590;9.922;2023-11-21T20:34:53;2.97;;;2.10;;
44728;SDS011;30457;53.590;9.922;2023-11-21T20:39:19;2.90;;;1.67;;
44728;SDS011;30457;53.590;9.922;2023-11-21T20:43:45;3.05;;;1.73;;
44728;SDS011;30457;53.590;9.922;2023-11-21T20:48:11;1.92;;;1.42;;
44728;SDS011;30457;53.590;9.922;2023-11-21T20:52:38;3.08;;;1.70;;
44728;SDS011;30457;53.590;9.922;2023-11-21T20:57:03;1.98;;;1.40;;
44728;SDS011;30457;53.590;9.922;2023-11-21T21:01:34;2.55;;;1.45;;
44728;SDS011;30457;53.590;9.922;2023-11-21T21:06:06;1.80;;;1.48;;
44728;SDS011;30457;53.590;9.922;2023-11-21T21:10:32;1.75;;;1.20;;
44728;SDS011;30457;53.590;9.922;2023-11-21T21:14:57;1.30;;;1.08;;
44728;SDS011;30457;53.590;9.922;2023-11-21T21:19:23;1.73;;;1.00;;
44728;SDS011;30457;53.590;9.922;2023-11-21T21:23:51;2.15;;;1.10;;
44728;SDS011;30457;53.590;9.922;2023-11-21T21:28:18;1.70;;;1.38;;
44728;SDS011;30457;53.590;9.922;2023-11-21T21:32:43;1.20;;;1.00;;
44728;SDS011;30457;53.590;9.922;2023-11-21T21:37:12;1.75;;;1.45;;
44728;SDS011;30457;53.590;9.922;2023-11-21T21:41:37;1.88;;;1.33;;
44728;SDS011;30457;53.590;9.922;2023-11-21T21:46:03;4.70;;;1.30;;
44728;SDS011;30457;53.590;9.922;2023-11-21T21:50:29;2.63;;;1.50;;
44728;SDS011;30457;53.590;9.922;2023-11-21T21:54:55;2.10;;;1.20;;
44728;SDS011;30457;53.590;9.922;2023-11-21T21:59:21;1.98;;;1.30;;
44728;SDS011;30457;53.590;9.922;2023-11-21T22:03:47;2.85;;;1.30;;
44728;SDS011;30457;53.590;9.922;2023-11-21T22:08:12;1.10;;;0.93;;
44728;SDS011;30457;53.590;9.922;2023-11-21T22:12:38;2.25;;;1.33;;
44728;SDS011;30457;53.590;9.922;2023-11-21T22:17:03;2.83;;;1.77;;
44728;SDS011;30457;53.590;9.922;2023-11-21T22:21:29;2.15;;;1.35;;
44728;SDS011;30457;53.590;9.922;2023-11-21T22:25:55;1.30;;;1.10;;
44728;SDS011;30457;53.590;9.922;2023-11-21T22:30:22;2.72;;;1.73;;
44728;SDS011;30457;53.590;9.922;2023-11-21T22:34:49;3.00;;;1.52;;
44728;SDS011;30457;53.590;9.922;2023-11-21T22:39:14;1.45;;;1.35;;
44728;SDS011;30457;53.590;9.922;2023-11-21T22:43:44;3.65;;;1.30;;
44728;SDS011;30457;53.590;9.922;2023-11-21T22:48:10;6.47;;;2.00;;
44728;SDS011;30457;53.590;9.922;2023-11-21T22:52:36;2.35;;;1.75;;
44728;SDS011;30457;53.590;9.922;2023-11-21T22:57:02;2.33;;;1.40;;
44728;SDS011;30457;53.590;9.922;2023-11-21T23:01:28;2.85;;;1.90;;
44728;SDS011;30457;53.590;9.922;2023-11-21T23:05:54;2.65;;;1.90;;
44728;SDS011;30457;53.590;9.922;2023-11-21T23:10:19;6.40;;;3.75;;
44728;SDS011;30457;53.590;9.922;2023-11-21T23:14:47;2.85;;;2.38;;
44728;SDS011;30457;53.590;9.922;2023-11-21T23:19:12;3.65;;;1.55;;
44728;SDS011;30457;53.590;9.922;2023-11-21T23:23:42;3.42;;;1.80;;
44728;SDS011;30457;53.590;9.922;2023-11-21T23:28:08;2.58;;;1.52;;
44728;SDS011;30457;53.590;9.922;2023-11-21T23:32:34;3.58;;;1.52;;
44728;SDS011;30457;53.590;9.922;2023-11-21T23:37:00;1.70;;;1.20;;
44728;SDS011;30457;53.590;9.922;2023-11-21T23:41:28;5.75;;;1.40;;
44728;SDS011;30457;53.590;9.922;2023-11-21T23:45:53;2.47;;;1.40;;
44728;SDS011;30457;53.590;9.922;2023-11-21T23:50:19;1.90;;;1.58;;
44728;SDS011;30457;53.590;9.922;2023-11-21T23:54:49;1.60;;;1.45;;
44728;SDS011;30457;53.590;9.922;2023-11-21T23:59:14;2.70;;;1.80;;
